sensor_id;sensor_type;location;lat;lon;timestamp;P1;durP1;ratioP1;P2;durP2;ratioP2
10313;SDS011;5202;49.138;10.090;2024-01-15T00:00:25;49.23;;;25.57;;
10313;SDS011;5202;49.138;10.090;2024-01-15T00:02:54;50.37;;;26.57;;
10313;SDS011;5202;49.138;10.090;2024-01-15T00:05:25;49.50;;;26.20;;
10313;SDS011;5202;49.138;10.090;2024-01-15T00:07:53;46.70;;;25.50;;
10313;SDS011;5202;49.138;10.090;2024-01-15T00:10:22;49.67;;;26.13;;
10313;SDS011;5202;49.138;10.090;2024-01-15T00:12:51;50.40;;;26.27;;
10313;SDS011;5202;49.138;10.090;2024-01-15T00:15:19;47.33;;;25.00;;
10313;SDS011;5202;49.138;10.090;2024-01-15T00:17:48;46.70;;;25.20;;
10313;SDS011;5202;49.138;10.090;2024-01-15T00:20:17;47.30;;;24.53;;
10313;SDS011;5202;49.138;10.090;2024-01-15T00:22:47;48.17;;;24.77;;
10313;SDS011;5202;49.138;10.090;2024-01-15T00:25:15;45.77;;;23.87;;
10313;SDS011;5202;49.138;10.090;2024-01-15T00:27:44;43.40;;;24.23;;
10313;SDS011;5202;49.138;10.090;2024-01-15T00:30:13;47.83;;;23.37;;
10313;SDS011;5202;49.138;10.090;2024-01-15T00:32:41;41.83;;;21.97;;
10313;SDS011;5202;49.138;10.090;2024-01-15T00:35:10;42.13;;;22.77;;
10313;SDS011;5202;49.138;10.090;2024-01-15T00:37:39;44.83;;;23.13;;
10313;SDS011;5202;49.138;10.090;2024-01-15T00:40:09;45.17;;;23.33;;
10313;SDS011;5202;49.138;10.090;2024-01-15T00:42:38;49.53;;;24.23;;
10313;SDS011;5202;49.138;10.090;2024-01-15T00:45:07;43.40;;;23.30;;
10313;SDS011;5202;49.138;10.090;2024-01-15T00:47:36;44.23;;;23.77;;
10313;SDS011;5202;49.138;10.090;2024-01-15T00:50:05;43.03;;;23.00;;
10313;SDS011;5202;49.138;10.090;2024-01-15T00:52:34;45.70;;;22.07;;
10313;SDS011;5202;49.138;10.090;2024-01-15T00:55:03;45.67;;;23.00;;
10313;SDS011;5202;49.138;10.090;2024-01-15T00:57:34;43.47;;;22.37;;
10313;SDS011;5202;49.138;10.090;2024-01-15T01:00:03;40.10;;;21.43;;
10313;SDS011;5202;49.138;10.090;2024-01-15T01:02:33;45.87;;;23.90;;
10313;SDS011;5202;49.138;10.090;2024-01-15T01:05:12;44.70;;;22.43;;
10313;SDS011;5202;49.138;10.090;2024-01-15T01:07:40;46.00;;;23.47;;
10313;SDS011;5202;49.138;10.090;2024-01-15T01:10:09;46.50;;;24.43;;
10313;SDS011;5202;49.138;10.090;2024-01-15T01:12:42;46.50;;;22.93;;
10313;SDS011;5202;49.138;10.090;2024-01-15T01:15:10;42.27;;;23.00;;
10313;SDS011;5202;49.138;10.090;2024-01-15T01:17:39;42.30;;;22.70;;
10313;SDS011;5202;49.138;10.090;2024-01-15T01:20:07;52.77;;;27.80;;
10313;SDS011;5202;49.138;10.090;2024-01-15T01:22:40;45.17;;;24.07;;
10313;SDS011;5202;49.138;10.090;2024-01-15T01:25:08;43.77;;;23.20;;
10313;SDS011;5202;49.138;10.090;2024-01-15T01:27:37;44.90;;;22.80;;
10313;SDS011;5202;49.138;10.090;2024-01-15T01:30:08;44.63;;;23.20;;
10313;SDS011;5202;49.138;10.090;2024-01-15T01:32:37;39.93;;;21.47;;
10313;SDS011;5202;49.138;10.090;2024-01-15T01:35:06;41.53;;;21.07;;
10313;SDS011;5202;49.138;10.090;2024-01-15T01:37:35;38.73;;;21.10;;
10313;SDS011;5202;49.138;10.090;2024-01-15T01:40:03;38.73;;;20.43;;
10313;SDS011;5202;49.138;10.090;2024-01-15T01:42:33;41.07;;;20.80;;
10313;SDS011;5202;49.138;10.090;2024-01-15T01:45:01;36.40;;;20.50;;
10313;SDS011;5202;49.138;10.090;2024-01-15T01:47:31;37.37;;;18.97;;
10313;SDS011;5202;49.138;10.090;2024-01-15T01:50:01;39.43;;;21.00;;
10313;SDS011;5202;49.138;10.090;2024-01-15T01:52:30;36.90;;;19.97;;
10313;SDS011;5202;49.138;10.090;2024-01-15T01:54:59;35.93;;;19.47;;
10313;SDS011;5202;49.138;10.090;2024-01-15T01:57:30;38.57;;;19.43;;
10313;SDS011;5202;49.138;10.090;2024-01-15T02:00:01;33.87;;;19.03;;
10313;SDS011;5202;49.138;10.090;2024-01-15T02:02:38;35.50;;;18.60;;
10313;SDS011;5202;49.138;10.090;2024-01-15T02:05:07;33.97;;;18.60;;
10313;SDS011;5202;49.138;10.090;2024-01-15T02:07:37;39.57;;;19.70;;
10313;SDS011;5202;49.138;10.090;2024-01-15T02:10:06;31.77;;;18.17;;
10313;SDS011;5202;49.138;10.090;2024-01-15T02:12:36;33.27;;;17.77;;
10313;SDS011;5202;49.138;10.090;2024-01-15T02:15:04;33.90;;;18.03;;
10313;SDS011;5202;49.138;10.090;2024-01-15T02:17:34;30.77;;;17.63;;
10313;SDS011;5202;49.138;10.090;2024-01-15T02:20:08;34.70;;;17.97;;
10313;SDS011;5202;49.138;10.090;2024-01-15T02:22:38;36.93;;;18.80;;
10313;SDS011;5202;49.138;10.090;2024-01-15T02:25:07;31.67;;;17.70;;
10313;SDS011;5202;49.138;10.090;2024-01-15T02:27:36;31.77;;;17.47;;
10313;SDS011;5202;49.138;10.090;2024-01-15T02:30:05;31.23;;;17.63;;
10313;SDS011;5202;49.138;10.090;2024-01-15T02:32:36;33.30;;;17.80;;
10313;SDS011;5202;49.138;10.090;2024-01-15T02:35:05;31.27;;;16.90;;
10313;SDS011;5202;49.138;10.090;2024-01-15T02:37:34;33.17;;;17.70;;
10313;SDS011;5202;49.138;10.090;2024-01-15T02:40:03;37.53;;;19.57;;
10313;SDS011;5202;49.138;10.090;2024-01-15T02:42:34;123.67;;;62.80;;
10313;SDS011;5202;49.138;10.090;2024-01-15T02:45:03;38.73;;;24.67;;
10313;SDS011;5202;49.138;10.090;2024-01-15T02:47:32;33.63;;;17.17;;
10313;SDS011;5202;49.138;10.090;2024-01-15T02:50:00;31.13;;;17.40;;
10313;SDS011;5202;49.138;10.090;2024-01-15T02:52:29;33.90;;;18.43;;
10313;SDS011;5202;49.138;10.090;2024-01-15T02:54:58;32.97;;;18.53;;
10313;SDS011;5202;49.138;10.090;2024-01-15T02:57:26;28.37;;;17.03;;
10313;SDS011;5202;49.138;10.090;2024-01-15T02:59:56;32.17;;;17.33;;
10313;SDS011;5202;49.138;10.090;2024-01-15T03:02:25;29.20;;;17.00;;
10313;SDS011;5202;49.138;10.090;2024-01-15T03:04:54;32.03;;;17.13;;
10313;SDS011;5202;49.138;10.090;2024-01-15T03:07:27;28.87;;;17.27;;
10313;SDS011;5202;49.138;10.090;2024-01-15T03:09:56;32.67;;;17.63;;
10313;SDS011;5202;49.138;10.090;2024-01-15T03:12:30;30.10;;;16.83;;
10313;SDS011;5202;49.138;10.090;2024-01-15T03:15:00;30.07;;;17.03;;
10313;SDS011;5202;49.138;10.090;2024-01-15T03:17:29;28.40;;;16.33;;
10313;SDS011;5202;49.138;10.090;2024-01-15T03:19:58;32.37;;;17.40;;
10313;SDS011;5202;49.138;10.090;2024-01-15T03:22:27;31.70;;;17.07;;
10313;SDS011;5202;49.138;10.090;2024-01-15T03:24:55;29.63;;;17.07;;
10313;SDS011;5202;49.138;10.090;2024-01-15T03:27:23;27.17;;;15.73;;
10313;SDS011;5202;49.138;10.090;2024-01-15T03:29:52;28.57;;;16.50;;
10313;SDS011;5202;49.138;10.090;2024-01-15T03:32:22;27.73;;;16.43;;
10313;SDS011;5202;49.138;10.090;2024-01-15T03:34:51;30.90;;;17.13;;
10313;SDS011;5202;49.138;10.090;2024-01-15T03:37:19;27.43;;;15.80;;
10313;SDS011;5202;49.138;10.090;2024-01-15T03:39:48;29.30;;;15.80;;
10313;SDS011;5202;49.138;10.090;2024-01-15T03:42:17;33.90;;;16.63;;
10313;SDS011;5202;49.138;10.090;2024-01-15T03:44:45;28.20;;;15.13;;
10313;SDS011;5202;49.138;10.090;2024-01-15T03:47:14;29.93;;;16.67;;
10313;SDS011;5202;49.138;10.090;2024-01-15T03:49:43;32.43;;;16.33;;
10313;SDS011;5202;49.138;10.090;2024-01-15T03:52:12;29.43;;;15.80;;
10313;SDS011;5202;49.138;10.090;2024-01-15T03:54:40;30.17;;;16.77;;
10313;SDS011;5202;49.138;10.090;2024-01-15T03:57:09;26.77;;;15.23;;
10313;SDS011;5202;49.138;10.090;2024-01-15T03:59:37;29.83;;;15.43;;
10313;SDS011;5202;49.138;10.090;2024-01-15T04:02:05;26.60;;;15.23;;
10313;SDS011;5202;49.138;10.090;2024-01-15T04:04:34;29.53;;;15.57;;
10313;SDS011;5202;49.138;10.090;2024-01-15T04:07:04;28.60;;;15.90;;
10313;SDS011;5202;49.138;10.090;2024-01-15T04:09:32;29.37;;;15.90;;
10313;SDS011;5202;49.138;10.090;2024-01-15T04:12:01;29.57;;;15.73;;
10313;SDS011;5202;49.138;10.090;2024-01-15T04:14:29;38.70;;;22.30;;
10313;SDS011;5202;49.138;10.090;2024-01-15T04:16:57;27.67;;;15.87;;
10313;SDS011;5202;49.138;10.090;2024-01-15T04:19:26;31.80;;;17.07;;
10313;SDS011;5202;49.138;10.090;2024-01-15T04:21:54;30.27;;;16.10;;
10313;SDS011;5202;49.138;10.090;2024-01-15T04:24:24;24.97;;;14.77;;
10313;SDS011;5202;49.138;10.090;2024-01-15T04:26:53;29.80;;;15.97;;
10313;SDS011;5202;49.138;10.090;2024-01-15T04:29:21;25.63;;;15.80;;
10313;SDS011;5202;49.138;10.090;2024-01-15T04:31:49;26.20;;;14.67;;
10313;SDS011;5202;49.138;10.090;2024-01-15T04:34:19;27.27;;;14.50;;
10313;SDS011;5202;49.138;10.090;2024-01-15T04:36:48;25.57;;;14.07;;
10313;SDS011;5202;49.138;10.090;2024-01-15T04:39:17;26.40;;;14.27;;
10313;SDS011;5202;49.138;10.090;2024-01-15T04:41:47;22.87;;;13.50;;
10313;SDS011;5202;49.138;10.090;2024-01-15T04:44:15;24.00;;;14.30;;
10313;SDS011;5202;49.138;10.090;2024-01-15T04:46:44;27.13;;;14.90;;
10313;SDS011;5202;49.138;10.090;2024-01-15T04:49:12;30.83;;;16.87;;
10313;SDS011;5202;49.138;10.090;2024-01-15T04:51:41;26.47;;;14.97;;
10313;SDS011;5202;49.138;10.090;2024-01-15T04:54:09;26.00;;;14.30;;
10313;SDS011;5202;49.138;10.090;2024-01-15T04:56:38;27.17;;;14.80;;
10313;SDS011;5202;49.138;10.090;2024-01-15T04:59:08;24.63;;;15.50;;
10313;SDS011;5202;49.138;10.090;2024-01-15T05:01:36;23.53;;;13.93;;
10313;SDS011;5202;49.138;10.090;2024-01-15T05:04:14;23.17;;;14.13;;
10313;SDS011;5202;49.138;10.090;2024-01-15T05:06:44;26.03;;;14.30;;
10313;SDS011;5202;49.138;10.090;2024-01-15T05:09:13;22.87;;;14.00;;
10313;SDS011;5202;49.138;10.090;2024-01-15T05:11:42;26.20;;;14.93;;
10313;SDS011;5202;49.138;10.090;2024-01-15T05:14:12;26.97;;;14.60;;
10313;SDS011;5202;49.138;10.090;2024-01-15T05:16:44;26.07;;;14.83;;
10313;SDS011;5202;49.138;10.090;2024-01-15T05:19:15;27.07;;;15.30;;
10313;SDS011;5202;49.138;10.090;2024-01-15T05:21:44;24.37;;;14.10;;
10313;SDS011;5202;49.138;10.090;2024-01-15T05:24:13;25.37;;;14.27;;
10313;SDS011;5202;49.138;10.090;2024-01-15T05:26:41;23.97;;;14.37;;
10313;SDS011;5202;49.138;10.090;2024-01-15T05:29:09;28.23;;;15.17;;
10313;SDS011;5202;49.138;10.090;2024-01-15T05:31:39;24.13;;;14.00;;
10313;SDS011;5202;49.138;10.090;2024-01-15T05:34:08;24.97;;;14.23;;
10313;SDS011;5202;49.138;10.090;2024-01-15T05:36:36;22.57;;;12.77;;
10313;SDS011;5202;49.138;10.090;2024-01-15T05:39:05;23.57;;;14.53;;
10313;SDS011;5202;49.138;10.090;2024-01-15T05:41:34;26.70;;;14.63;;
10313;SDS011;5202;49.138;10.090;2024-01-15T05:44:02;22.97;;;13.13;;
10313;SDS011;5202;49.138;10.090;2024-01-15T05:46:32;23.63;;;13.50;;
10313;SDS011;5202;49.138;10.090;2024-01-15T05:49:01;21.80;;;12.50;;
10313;SDS011;5202;49.138;10.090;2024-01-15T05:51:30;23.47;;;13.10;;
10313;SDS011;5202;49.138;10.090;2024-01-15T05:53:58;21.77;;;13.90;;
10313;SDS011;5202;49.138;10.090;2024-01-15T05:56:27;20.37;;;13.00;;
10313;SDS011;5202;49.138;10.090;2024-01-15T05:58:55;21.00;;;13.40;;
10313;SDS011;5202;49.138;10.090;2024-01-15T06:01:24;21.50;;;13.87;;
10313;SDS011;5202;49.138;10.090;2024-01-15T06:03:54;19.77;;;13.03;;
10313;SDS011;5202;49.138;10.090;2024-01-15T06:06:23;19.93;;;11.67;;
10313;SDS011;5202;49.138;10.090;2024-01-15T06:08:51;23.33;;;12.93;;
10313;SDS011;5202;49.138;10.090;2024-01-15T06:11:20;21.57;;;11.43;;
10313;SDS011;5202;49.138;10.090;2024-01-15T06:13:48;23.77;;;13.37;;
10313;SDS011;5202;49.138;10.090;2024-01-15T06:16:17;18.13;;;11.47;;
10313;SDS011;5202;49.138;10.090;2024-01-15T06:18:46;19.30;;;12.17;;
10313;SDS011;5202;49.138;10.090;2024-01-15T06:21:17;18.37;;;12.07;;
10313;SDS011;5202;49.138;10.090;2024-01-15T06:23:45;18.03;;;11.10;;
10313;SDS011;5202;49.138;10.090;2024-01-15T06:26:14;21.93;;;12.40;;
10313;SDS011;5202;49.138;10.090;2024-01-15T06:28:43;16.83;;;11.63;;
10313;SDS011;5202;49.138;10.090;2024-01-15T06:31:12;21.70;;;12.17;;
10313;SDS011;5202;49.138;10.090;2024-01-15T06:33:40;21.33;;;13.20;;
10313;SDS011;5202;49.138;10.090;2024-01-15T06:36:09;17.73;;;11.77;;
10313;SDS011;5202;49.138;10.090;2024-01-15T06:38:39;15.60;;;10.67;;
10313;SDS011;5202;49.138;10.090;2024-01-15T06:41:08;18.20;;;11.27;;
10313;SDS011;5202;49.138;10.090;2024-01-15T06:43:38;19.73;;;11.60;;
10313;SDS011;5202;49.138;10.090;2024-01-15T06:46:06;17.60;;;10.73;;
10313;SDS011;5202;49.138;10.090;2024-01-15T06:48:35;20.23;;;11.53;;
10313;SDS011;5202;49.138;10.090;2024-01-15T06:51:04;17.10;;;10.80;;
10313;SDS011;5202;49.138;10.090;2024-01-15T06:53:33;19.00;;;11.50;;
10313;SDS011;5202;49.138;10.090;2024-01-15T06:56:02;18.07;;;11.63;;
10313;SDS011;5202;49.138;10.090;2024-01-15T06:58:31;18.23;;;10.87;;
10313;SDS011;5202;49.138;10.090;2024-01-15T07:01:00;17.97;;;11.00;;
10313;SDS011;5202;49.138;10.090;2024-01-15T07:03:29;18.47;;;11.13;;
10313;SDS011;5202;49.138;10.090;2024-01-15T07:05:58;17.87;;;11.30;;
10313;SDS011;5202;49.138;10.090;2024-01-15T07:08:26;16.47;;;10.17;;
10313;SDS011;5202;49.138;10.090;2024-01-15T07:10:55;18.00;;;11.20;;
10313;SDS011;5202;49.138;10.090;2024-01-15T07:13:25;17.87;;;10.37;;
10313;SDS011;5202;49.138;10.090;2024-01-15T07:15:54;18.97;;;11.33;;
10313;SDS011;5202;49.138;10.090;2024-01-15T07:18:22;15.47;;;10.20;;
10313;SDS011;5202;49.138;10.090;2024-01-15T07:20:51;14.93;;;9.73;;
10313;SDS011;5202;49.138;10.090;2024-01-15T07:23:20;15.17;;;9.50;;
10313;SDS011;5202;49.138;10.090;2024-01-15T07:25:48;14.70;;;9.33;;
10313;SDS011;5202;49.138;10.090;2024-01-15T07:28:16;23.17;;;12.70;;
10313;SDS011;5202;49.138;10.090;2024-01-15T07:30:46;14.17;;;9.70;;
10313;SDS011;5202;49.138;10.090;2024-01-15T07:33:15;14.87;;;9.60;;
10313;SDS011;5202;49.138;10.090;2024-01-15T07:35:43;14.40;;;9.13;;
10313;SDS011;5202;49.138;10.090;2024-01-15T07:38:14;14.60;;;9.40;;
10313;SDS011;5202;49.138;10.090;2024-01-15T07:40:43;13.30;;;8.67;;
10313;SDS011;5202;49.138;10.090;2024-01-15T07:43:15;15.47;;;9.10;;
10313;SDS011;5202;49.138;10.090;2024-01-15T07:45:47;17.10;;;9.00;;
10313;SDS011;5202;49.138;10.090;2024-01-15T07:48:16;15.87;;;9.60;;
10313;SDS011;5202;49.138;10.090;2024-01-15T07:50:45;13.93;;;9.00;;
10313;SDS011;5202;49.138;10.090;2024-01-15T07:53:14;14.50;;;9.10;;
10313;SDS011;5202;49.138;10.090;2024-01-15T07:55:42;14.77;;;9.27;;
10313;SDS011;5202;49.138;10.090;2024-01-15T07:58:13;14.37;;;8.83;;
10313;SDS011;5202;49.138;10.090;2024-01-15T08:00:43;14.30;;;9.73;;
10313;SDS011;5202;49.138;10.090;2024-01-15T08:03:17;14.03;;;9.90;;
10313;SDS011;5202;49.138;10.090;2024-01-15T08:05:46;13.83;;;8.90;;
10313;SDS011;5202;49.138;10.090;2024-01-15T08:08:20;13.67;;;9.33;;
10313;SDS011;5202;49.138;10.090;2024-01-15T08:10:49;13.07;;;9.00;;
10313;SDS011;5202;49.138;10.090;2024-01-15T08:13:18;15.00;;;9.57;;
10313;SDS011;5202;49.138;10.090;2024-01-15T08:15:47;13.77;;;9.10;;
10313;SDS011;5202;49.138;10.090;2024-01-15T08:18:20;15.40;;;9.30;;
10313;SDS011;5202;49.138;10.090;2024-01-15T08:20:50;14.17;;;9.23;;
10313;SDS011;5202;49.138;10.090;2024-01-15T08:23:19;13.23;;;9.23;;
10313;SDS011;5202;49.138;10.090;2024-01-15T08:25:48;14.30;;;8.93;;
10313;SDS011;5202;49.138;10.090;2024-01-15T08:28:17;13.53;;;9.17;;
10313;SDS011;5202;49.138;10.090;2024-01-15T08:30:46;15.37;;;8.87;;
10313;SDS011;5202;49.138;10.090;2024-01-15T08:33:15;14.43;;;9.47;;
10313;SDS011;5202;49.138;10.090;2024-01-15T08:35:49;17.60;;;9.63;;
10313;SDS011;5202;49.138;10.090;2024-01-15T08:38:18;14.90;;;10.00;;
10313;SDS011;5202;49.138;10.090;2024-01-15T08:40:47;13.83;;;8.77;;
10313;SDS011;5202;49.138;10.090;2024-01-15T08:43:17;15.43;;;9.60;;
10313;SDS011;5202;49.138;10.090;2024-01-15T08:45:46;15.77;;;9.33;;
10313;SDS011;5202;49.138;10.090;2024-01-15T08:48:15;13.63;;;9.10;;
10313;SDS011;5202;49.138;10.090;2024-01-15T08:50:44;12.43;;;8.60;;
10313;SDS011;5202;49.138;10.090;2024-01-15T08:53:16;17.10;;;9.47;;
10313;SDS011;5202;49.138;10.090;2024-01-15T08:55:45;15.10;;;9.73;;
10313;SDS011;5202;49.138;10.090;2024-01-15T08:58:14;16.33;;;10.00;;
10313;SDS011;5202;49.138;10.090;2024-01-15T09:00:42;13.50;;;9.33;;
10313;SDS011;5202;49.138;10.090;2024-01-15T09:03:11;16.03;;;8.97;;
10313;SDS011;5202;49.138;10.090;2024-01-15T09:05:41;12.27;;;8.07;;
10313;SDS011;5202;49.138;10.090;2024-01-15T09:08:10;35.20;;;18.50;;
10313;SDS011;5202;49.138;10.090;2024-01-15T09:10:40;13.63;;;9.10;;
10313;SDS011;5202;49.138;10.090;2024-01-15T09:13:09;14.20;;;8.73;;
10313;SDS011;5202;49.138;10.090;2024-01-15T09:15:38;15.40;;;9.33;;
10313;SDS011;5202;49.138;10.090;2024-01-15T09:18:07;15.20;;;9.10;;
10313;SDS011;5202;49.138;10.090;2024-01-15T09:20:36;13.17;;;8.70;;
10313;SDS011;5202;49.138;10.090;2024-01-15T09:23:05;14.23;;;9.23;;
10313;SDS011;5202;49.138;10.090;2024-01-15T09:25:34;14.23;;;8.93;;
10313;SDS011;5202;49.138;10.090;2024-01-15T09:28:04;14.07;;;9.63;;
10313;SDS011;5202;49.138;10.090;2024-01-15T09:30:35;14.10;;;9.07;;
10313;SDS011;5202;49.138;10.090;2024-01-15T09:33:04;18.07;;;10.73;;
10313;SDS011;5202;49.138;10.090;2024-01-15T09:35:33;16.10;;;11.73;;
10313;SDS011;5202;49.138;10.090;2024-01-15T09:38:07;16.67;;;10.13;;
10313;SDS011;5202;49.138;10.090;2024-01-15T09:40:35;16.60;;;8.93;;
10313;SDS011;5202;49.138;10.090;2024-01-15T09:43:14;13.20;;;9.50;;
10313;SDS011;5202;49.138;10.090;2024-01-15T09:45:43;14.70;;;9.23;;
10313;SDS011;5202;49.138;10.090;2024-01-15T09:48:13;12.87;;;8.60;;
10313;SDS011;5202;49.138;10.090;2024-01-15T09:50:42;14.57;;;8.93;;
10313;SDS011;5202;49.138;10.090;2024-01-15T09:53:11;14.67;;;8.90;;
10313;SDS011;5202;49.138;10.090;2024-01-15T09:55:42;14.43;;;8.87;;
10313;SDS011;5202;49.138;10.090;2024-01-15T09:58:14;12.90;;;8.53;;
10313;SDS011;5202;49.138;10.090;2024-01-15T10:00:43;15.77;;;9.53;;
10313;SDS011;5202;49.138;10.090;2024-01-15T10:03:13;15.03;;;8.73;;
10313;SDS011;5202;49.138;10.090;2024-01-15T10:05:42;14.23;;;9.20;;
10313;SDS011;5202;49.138;10.090;2024-01-15T10:08:13;12.07;;;8.43;;
10313;SDS011;5202;49.138;10.090;2024-01-15T10:10:42;12.70;;;9.10;;
10313;SDS011;5202;49.138;10.090;2024-01-15T10:13:11;12.43;;;9.33;;
10313;SDS011;5202;49.138;10.090;2024-01-15T10:15:44;13.13;;;8.70;;
10313;SDS011;5202;49.138;10.090;2024-01-15T10:18:14;13.20;;;9.33;;
10313;SDS011;5202;49.138;10.090;2024-01-15T10:20:43;14.50;;;9.53;;
10313;SDS011;5202;49.138;10.090;2024-01-15T10:23:13;14.80;;;10.50;;
10313;SDS011;5202;49.138;10.090;2024-01-15T10:25:43;17.33;;;10.10;;
10313;SDS011;5202;49.138;10.090;2024-01-15T10:28:13;13.63;;;8.93;;
10313;SDS011;5202;49.138;10.090;2024-01-15T10:30:42;11.83;;;8.60;;
10313;SDS011;5202;49.138;10.090;2024-01-15T10:33:10;13.83;;;9.03;;
10313;SDS011;5202;49.138;10.090;2024-01-15T10:35:39;13.33;;;8.73;;
10313;SDS011;5202;49.138;10.090;2024-01-15T10:38:09;10.47;;;8.13;;
10313;SDS011;5202;49.138;10.090;2024-01-15T10:40:37;13.40;;;8.90;;
10313;SDS011;5202;49.138;10.090;2024-01-15T10:43:06;12.73;;;8.93;;
10313;SDS011;5202;49.138;10.090;2024-01-15T10:45:36;13.20;;;8.50;;
10313;SDS011;5202;49.138;10.090;2024-01-15T10:48:04;11.67;;;8.23;;
10313;SDS011;5202;49.138;10.090;2024-01-15T10:50:34;14.07;;;7.80;;
10313;SDS011;5202;49.138;10.090;2024-01-15T10:53:04;10.63;;;7.83;;
10313;SDS011;5202;49.138;10.090;2024-01-15T10:55:33;12.47;;;7.77;;
10313;SDS011;5202;49.138;10.090;2024-01-15T10:58:03;11.80;;;7.63;;
10313;SDS011;5202;49.138;10.090;2024-01-15T11:00:36;12.37;;;7.93;;
10313;SDS011;5202;49.138;10.090;2024-01-15T11:03:06;11.10;;;7.63;;
10313;SDS011;5202;49.138;10.090;2024-01-15T11:05:45;11.10;;;7.57;;
10313;SDS011;5202;49.138;10.090;2024-01-15T11:08:24;11.57;;;7.67;;
10313;SDS011;5202;49.138;10.090;2024-01-15T11:10:53;11.27;;;7.77;;
10313;SDS011;5202;49.138;10.090;2024-01-15T11:13:43;14.43;;;7.17;;
10313;SDS011;5202;49.138;10.090;2024-01-15T11:16:18;12.33;;;8.20;;
10313;SDS011;5202;49.138;10.090;2024-01-15T11:19:02;11.97;;;8.20;;
10313;SDS011;5202;49.138;10.090;2024-01-15T11:21:40;13.00;;;8.53;;
10313;SDS011;5202;49.138;10.090;2024-01-15T11:24:11;13.63;;;7.90;;
10313;SDS011;5202;49.138;10.090;2024-01-15T11:27:09;36.27;;;19.20;;
10313;SDS011;5202;49.138;10.090;2024-01-15T11:29:38;11.60;;;8.13;;
10313;SDS011;5202;49.138;10.090;2024-01-15T11:32:07;13.20;;;8.13;;
10313;SDS011;5202;49.138;10.090;2024-01-15T11:34:53;10.67;;;7.97;;
10313;SDS011;5202;49.138;10.090;2024-01-15T11:37:29;13.37;;;8.63;;
10313;SDS011;5202;49.138;10.090;2024-01-15T11:40:39;12.70;;;8.07;;
10313;SDS011;5202;49.138;10.090;2024-01-15T11:43:11;12.30;;;7.57;;
10313;SDS011;5202;49.138;10.090;2024-01-15T11:45:43;11.27;;;7.30;;
10313;SDS011;5202;49.138;10.090;2024-01-15T11:48:12;10.83;;;7.57;;
10313;SDS011;5202;49.138;10.090;2024-01-15T11:50:43;11.23;;;7.57;;
10313;SDS011;5202;49.138;10.090;2024-01-15T11:53:15;14.27;;;8.60;;
10313;SDS011;5202;49.138;10.090;2024-01-15T11:55:47;11.63;;;7.60;;
10313;SDS011;5202;49.138;10.090;2024-01-15T11:58:19;11.60;;;8.07;;
10313;SDS011;5202;49.138;10.090;2024-01-15T12:00:48;13.43;;;7.80;;
10313;SDS011;5202;49.138;10.090;2024-01-15T12:03:20;11.37;;;7.67;;
10313;SDS011;5202;49.138;10.090;2024-01-15T12:05:49;13.13;;;8.33;;
10313;SDS011;5202;49.138;10.090;2024-01-15T12:08:23;10.63;;;7.70;;
10313;SDS011;5202;49.138;10.090;2024-01-15T12:10:54;15.37;;;7.57;;
10313;SDS011;5202;49.138;10.090;2024-01-15T12:13:23;11.40;;;7.97;;
10313;SDS011;5202;49.138;10.090;2024-01-15T12:15:52;18.73;;;8.03;;
10313;SDS011;5202;49.138;10.090;2024-01-15T12:18:22;11.80;;;7.40;;
10313;SDS011;5202;49.138;10.090;2024-01-15T12:20:53;11.10;;;7.60;;
10313;SDS011;5202;49.138;10.090;2024-01-15T12:23:23;16.43;;;9.77;;
10313;SDS011;5202;49.138;10.090;2024-01-15T12:25:51;12.13;;;8.40;;
10313;SDS011;5202;49.138;10.090;2024-01-15T12:28:22;12.03;;;8.40;;
10313;SDS011;5202;49.138;10.090;2024-01-15T12:30:51;13.27;;;8.80;;
10313;SDS011;5202;49.138;10.090;2024-01-15T12:33:19;20.03;;;10.47;;
10313;SDS011;5202;49.138;10.090;2024-01-15T12:35:48;13.97;;;8.63;;
10313;SDS011;5202;49.138;10.090;2024-01-15T12:38:20;13.20;;;10.37;;
10313;SDS011;5202;49.138;10.090;2024-01-15T12:40:49;11.53;;;8.13;;
10313;SDS011;5202;49.138;10.090;2024-01-15T12:43:19;10.67;;;7.47;;
10313;SDS011;5202;49.138;10.090;2024-01-15T12:45:48;11.60;;;7.00;;
10313;SDS011;5202;49.138;10.090;2024-01-15T12:48:18;9.27;;;7.30;;
10313;SDS011;5202;49.138;10.090;2024-01-15T12:50:47;10.37;;;7.60;;
10313;SDS011;5202;49.138;10.090;2024-01-15T12:53:15;10.57;;;6.80;;
10313;SDS011;5202;49.138;10.090;2024-01-15T12:55:45;12.40;;;7.23;;
10313;SDS011;5202;49.138;10.090;2024-01-15T12:58:13;8.87;;;6.90;;
10313;SDS011;5202;49.138;10.090;2024-01-15T13:00:47;9.73;;;6.23;;
10313;SDS011;5202;49.138;10.090;2024-01-15T13:03:16;8.60;;;6.40;;
10313;SDS011;5202;49.138;10.090;2024-01-15T13:05:47;8.50;;;5.87;;
10313;SDS011;5202;49.138;10.090;2024-01-15T13:08:19;10.63;;;6.90;;
10313;SDS011;5202;49.138;10.090;2024-01-15T13:10:49;9.30;;;5.27;;
10313;SDS011;5202;49.138;10.090;2024-01-15T13:13:18;7.03;;;5.20;;
10313;SDS011;5202;49.138;10.090;2024-01-15T13:15:48;7.03;;;5.70;;
10313;SDS011;5202;49.138;10.090;2024-01-15T13:18:17;6.53;;;5.47;;
10313;SDS011;5202;49.138;10.090;2024-01-15T13:20:45;6.43;;;5.27;;
10313;SDS011;5202;49.138;10.090;2024-01-15T13:23:15;7.43;;;4.80;;
10313;SDS011;5202;49.138;10.090;2024-01-15T13:25:43;5.77;;;4.60;;
10313;SDS011;5202;49.138;10.090;2024-01-15T13:28:12;6.37;;;4.97;;
10313;SDS011;5202;49.138;10.090;2024-01-15T13:30:42;6.20;;;4.87;;
10313;SDS011;5202;49.138;10.090;2024-01-15T13:33:13;6.37;;;4.80;;
10313;SDS011;5202;49.138;10.090;2024-01-15T13:35:42;5.53;;;4.30;;
10313;SDS011;5202;49.138;10.090;2024-01-15T13:38:11;5.03;;;4.10;;
10313;SDS011;5202;49.138;10.090;2024-01-15T13:40:39;4.83;;;3.73;;
10313;SDS011;5202;49.138;10.090;2024-01-15T13:43:08;4.97;;;4.47;;
10313;SDS011;5202;49.138;10.090;2024-01-15T13:45:36;6.03;;;4.70;;
10313;SDS011;5202;49.138;10.090;2024-01-15T13:48:05;5.67;;;4.47;;
10313;SDS011;5202;49.138;10.090;2024-01-15T13:50:36;6.73;;;5.33;;
10313;SDS011;5202;49.138;10.090;2024-01-15T13:53:04;5.40;;;4.83;;
10313;SDS011;5202;49.138;10.090;2024-01-15T13:55:32;8.43;;;5.27;;
10313;SDS011;5202;49.138;10.090;2024-01-15T13:58:02;6.50;;;5.57;;
10313;SDS011;5202;49.138;10.090;2024-01-15T14:00:32;6.23;;;4.90;;
10313;SDS011;5202;49.138;10.090;2024-01-15T14:03:01;7.93;;;5.63;;
10313;SDS011;5202;49.138;10.090;2024-01-15T14:05:30;11.53;;;5.33;;
10313;SDS011;5202;49.138;10.090;2024-01-15T14:08:00;6.60;;;5.37;;
10313;SDS011;5202;49.138;10.090;2024-01-15T14:10:30;5.00;;;4.50;;
10313;SDS011;5202;49.138;10.090;2024-01-15T14:12:59;6.17;;;5.20;;
10313;SDS011;5202;49.138;10.090;2024-01-15T14:15:28;7.07;;;5.60;;
10313;SDS011;5202;49.138;10.090;2024-01-15T14:17:59;8.40;;;5.90;;
10313;SDS011;5202;49.138;10.090;2024-01-15T14:20:28;7.93;;;6.63;;
10313;SDS011;5202;49.138;10.090;2024-01-15T14:22:57;7.07;;;6.37;;
10313;SDS011;5202;49.138;10.090;2024-01-15T14:25:27;8.90;;;7.20;;
10313;SDS011;5202;49.138;10.090;2024-01-15T14:27:56;10.00;;;6.93;;
10313;SDS011;5202;49.138;10.090;2024-01-15T14:30:25;11.07;;;7.97;;
10313;SDS011;5202;49.138;10.090;2024-01-15T14:32:54;9.67;;;7.93;;
10313;SDS011;5202;49.138;10.090;2024-01-15T14:35:22;9.00;;;7.70;;
10313;SDS011;5202;49.138;10.090;2024-01-15T14:37:51;8.27;;;6.90;;
10313;SDS011;5202;49.138;10.090;2024-01-15T14:40:21;8.43;;;7.10;;
10313;SDS011;5202;49.138;10.090;2024-01-15T14:42:49;8.60;;;7.00;;